createdAt,value
2019-02-25T00:01:37.812Z,1.90
2019-02-25T00:04:08.377Z,2.02
2019-02-25T00:06:38.931Z,2.07
2019-02-25T00:09:09.530Z,2.10
2019-02-25T00:11:40.445Z,2.16
2019-02-25T00:14:10.809Z,2.13
2019-02-25T00:16:42.027Z,2.19
2019-02-25T00:19:12.357Z,2.23
2019-02-25T00:21:42.745Z,2.25
2019-02-25T00:24:13.058Z,2.30
2019-02-25T00:26:43.482Z,2.33
2019-02-25T00:29:13.882Z,2.39
2019-02-25T00:31:44.337Z,2.42
2019-02-25T00:34:14.697Z,2.43
2019-02-25T00:36:45.449Z,2.46
2019-02-25T00:39:15.945Z,2.49
2019-02-25T00:41:46.439Z,2.47
2019-02-25T00:44:16.864Z,2.54
2019-02-25T00:46:47.546Z,2.52
2019-02-25T00:49:18.483Z,2.50
2019-02-25T00:51:49.329Z,2.54
2019-02-25T00:54:19.784Z,2.55
2019-02-25T00:56:51.201Z,2.60
2019-02-25T00:59:21.621Z,2.62
2019-02-25T01:01:52.082Z,2.65
2019-02-25T01:04:22.585Z,2.62
2019-02-25T01:06:53.095Z,2.65
2019-02-25T01:09:23.574Z,2.62
2019-02-25T01:11:54.061Z,2.63
2019-02-25T01:14:24.485Z,2.66
2019-02-25T01:16:54.887Z,2.63
2019-02-25T01:19:25.320Z,2.63
2019-02-25T01:21:56.093Z,2.62
2019-02-25T01:24:26.418Z,2.59
2019-02-25T01:26:57.270Z,2.58
2019-02-25T01:29:27.606Z,2.58
2019-02-25T01:31:57.942Z,2.61
2019-02-25T01:34:28.445Z,2.57
2019-02-25T01:36:58.949Z,2.52
2019-02-25T01:39:29.384Z,2.46
2019-02-25T01:41:59.956Z,2.41
2019-02-25T01:44:30.507Z,2.33
2019-02-25T01:47:00.962Z,2.26
2019-02-25T01:49:31.360Z,2.14
2019-02-25T01:52:01.800Z,2.03
2019-02-25T01:54:32.345Z,1.96
2019-02-25T01:57:02.899Z,1.88
2019-02-25T01:59:33.493Z,1.78
2019-02-25T02:02:05.610Z,1.72
2019-02-25T02:04:36.135Z,1.65
2019-02-25T02:07:06.543Z,1.63
2019-02-25T02:09:37.126Z,1.62
2019-02-25T02:12:07.515Z,1.63
2019-02-25T02:14:39.084Z,1.62
2019-02-25T02:17:09.652Z,1.66
2019-02-25T02:19:41.009Z,1.69
2019-02-25T02:22:11.410Z,1.76
2019-02-25T02:24:41.793Z,1.81
2019-02-25T02:27:12.248Z,1.88
2019-02-25T02:29:42.717Z,1.91
2019-02-25T02:32:13.056Z,1.96
2019-02-25T02:34:43.496Z,2.07
2019-02-25T02:37:13.909Z,2.12
2019-02-25T02:39:44.384Z,2.12
2019-02-25T02:42:22.074Z,2.14
2019-02-25T02:44:55.394Z,2.08
2019-02-25T02:47:44.454Z,2.14
2019-02-25T02:50:18.378Z,2.14
2019-02-25T02:52:48.800Z,2.20
2019-02-25T02:55:19.391Z,2.26
2019-02-25T02:57:49.733Z,2.31
2019-02-25T03:00:21.074Z,2.29
2019-02-25T03:02:51.474Z,2.28
2019-02-25T03:05:21.895Z,2.28
2019-02-25T03:07:52.408Z,2.30
2019-02-25T03:10:23.039Z,2.33
2019-02-25T03:12:53.373Z,2.32
2019-02-25T03:15:23.842Z,2.35
2019-02-25T03:17:54.207Z,2.38
2019-02-25T03:20:24.612Z,2.39
2019-02-25T03:22:55.097Z,2.41
2019-02-25T03:25:25.432Z,2.42
2019-02-25T03:27:55.879Z,2.40
2019-02-25T03:30:26.344Z,2.42
2019-02-25T03:32:56.825Z,2.43
2019-02-25T03:35:27.251Z,2.47
2019-02-25T03:37:57.675Z,2.49
2019-02-25T03:40:28.121Z,2.47
2019-02-25T03:42:58.608Z,2.46
2019-02-25T03:45:29.614Z,2.49
2019-02-25T03:48:00.073Z,2.49
2019-02-25T03:50:30.590Z,2.50
2019-02-25T03:53:01.100Z,2.40
2019-02-25T03:55:31.587Z,2.40
2019-02-25T03:58:01.964Z,2.32
2019-02-25T04:00:32.372Z,2.36
2019-02-25T04:03:02.806Z,2.40
2019-02-25T04:05:33.433Z,2.37
2019-02-25T04:08:03.981Z,2.36
2019-02-25T04:10:34.429Z,2.40
2019-02-25T04:13:05.651Z,2.39
2019-02-25T04:15:39.679Z,2.39
2019-02-25T04:18:10.125Z,2.38
2019-02-25T04:20:40.533Z,2.36
2019-02-25T04:23:10.992Z,2.29
2019-02-25T04:25:41.396Z,2.21
2019-02-25T04:28:11.857Z,2.22
2019-02-25T04:30:42.318Z,2.21
2019-02-25T04:33:12.803Z,2.23
2019-02-25T04:35:44.368Z,2.23
2019-02-25T04:38:14.852Z,2.25
2019-02-25T04:40:45.270Z,2.22
2019-02-25T04:43:15.807Z,2.22
2019-02-25T04:45:46.225Z,2.23
2019-02-25T04:48:16.734Z,2.25
2019-02-25T04:50:47.276Z,2.25
2019-02-25T04:53:17.764Z,2.24
2019-02-25T04:55:48.184Z,2.24
2019-02-25T04:58:18.675Z,2.24
2019-02-25T05:00:49.068Z,2.25
2019-02-25T05:03:19.518Z,2.25
2019-02-25T05:05:49.947Z,2.23
2019-02-25T05:08:20.332Z,2.24
2019-02-25T05:10:50.780Z,2.25
2019-02-25T05:13:21.358Z,2.23
2019-02-25T05:15:51.747Z,2.29
2019-02-25T05:18:22.155Z,2.30
2019-02-25T05:20:52.570Z,2.32
2019-02-25T05:23:24.015Z,2.33
2019-02-25T05:25:54.443Z,2.30
2019-02-25T05:28:24.869Z,2.35
2019-02-25T05:30:55.352Z,2.33
2019-02-25T05:33:25.732Z,2.35
2019-02-25T05:35:56.139Z,2.38
2019-02-25T05:38:26.676Z,2.38
2019-02-25T05:40:57.296Z,2.41
2019-02-25T05:43:28.310Z,2.40
2019-02-25T05:45:58.771Z,2.42
2019-02-25T05:48:29.274Z,2.46
2019-02-25T05:50:59.735Z,2.46
2019-02-25T05:53:30.134Z,2.43
2019-02-25T05:56:00.527Z,2.43
2019-02-25T05:58:31.019Z,2.41
2019-02-25T06:01:01.446Z,2.45
2019-02-25T06:03:32.045Z,2.43
2019-02-25T06:06:02.463Z,2.39
2019-02-25T06:08:32.851Z,2.34
2019-02-25T06:11:03.310Z,2.32
2019-02-25T06:13:33.770Z,2.21
2019-02-25T06:16:04.144Z,2.25
2019-02-25T06:18:36.293Z,2.28
2019-02-25T06:21:06.686Z,2.22
2019-02-25T06:23:37.214Z,2.26
2019-02-25T06:26:07.664Z,2.23
2019-02-25T06:28:38.211Z,2.05
2019-02-25T06:31:08.585Z,1.93
2019-02-25T06:33:39.052Z,1.71
2019-02-25T06:36:09.477Z,1.68
2019-02-25T06:38:39.893Z,1.68
2019-02-25T06:41:10.592Z,1.76
2019-02-25T06:43:41.042Z,1.73
2019-02-25T06:46:11.452Z,1.69
2019-02-25T06:48:42.174Z,1.63
2019-02-25T06:51:12.675Z,1.64
2019-02-25T06:53:43.205Z,1.66
2019-02-25T06:56:13.533Z,1.79
2019-02-25T06:58:43.923Z,1.92
2019-02-25T07:01:14.415Z,2.12
2019-02-25T07:03:46.652Z,2.28
2019-02-25T07:06:21.434Z,2.45
2019-02-25T07:09:13.635Z,2.60
2019-02-25T07:12:09.318Z,2.71
2019-02-25T07:14:44.579Z,2.84
2019-02-25T07:17:34.250Z,2.94
2019-02-25T07:20:17.804Z,3.09
2019-02-25T07:23:10.224Z,3.19
2019-02-25T07:25:59.588Z,3.31
2019-02-25T07:28:54.760Z,3.42
2019-02-25T07:31:43.501Z,3.55
2019-02-25T07:34:20.188Z,3.67
2019-02-25T07:37:08.159Z,3.74
2019-02-25T07:39:50.646Z,3.78
2019-02-25T07:42:35.662Z,3.86
2019-02-25T07:45:15.012Z,3.97
2019-02-25T07:47:53.986Z,3.95
2019-02-25T07:50:55.335Z,4.08
2019-02-25T07:53:48.643Z,4.13
2019-02-25T07:56:33.289Z,4.25
2019-02-25T07:59:12.655Z,4.28
2019-02-25T08:01:57.488Z,4.37
2019-02-25T08:04:39.004Z,4.40
2019-02-25T08:07:28.332Z,4.48
2019-02-25T08:10:24.081Z,4.56
2019-02-25T08:13:04.765Z,4.68
2019-02-25T08:15:43.614Z,4.77
2019-02-25T08:18:22.199Z,4.88
2019-02-25T08:21:00.092Z,5.03
2019-02-25T08:23:41.453Z,5.16
2019-02-25T08:26:30.741Z,5.26
2019-02-25T08:29:18.602Z,5.35
2019-02-25T08:32:23.978Z,5.42
2019-02-25T08:35:19.216Z,5.61
2019-02-25T08:38:24.823Z,5.79
2019-02-25T08:41:26.806Z,5.91
2019-02-25T08:44:08.626Z,5.86
2019-02-25T08:47:03.134Z,5.84
2019-02-25T08:49:40.477Z,5.79
2019-02-25T08:52:10.987Z,5.93
2019-02-25T08:54:41.456Z,5.96
2019-02-25T08:57:12.055Z,5.89
2019-02-25T08:59:42.924Z,5.95
2019-02-25T09:02:13.564Z,6.07
2019-02-25T09:04:44.076Z,6.13
2019-02-25T09:07:14.474Z,6.08
2019-02-25T09:09:45.050Z,6.20
2019-02-25T09:12:15.496Z,6.22
2019-02-25T09:14:46.017Z,6.27
2019-02-25T09:17:16.498Z,6.18
2019-02-25T09:19:47.033Z,6.39
2019-02-25T09:22:17.454Z,6.44
2019-02-25T09:24:47.958Z,6.55
2019-02-25T09:27:18.661Z,6.56
2019-02-25T09:29:49.110Z,6.72
2019-02-25T09:32:19.636Z,6.65
2019-02-25T09:34:50.119Z,6.83
2019-02-25T09:37:20.591Z,6.77
2019-02-25T09:39:52.020Z,6.88
2019-02-25T09:42:22.802Z,6.88
2019-02-25T09:44:53.232Z,6.78
2019-02-25T09:47:23.741Z,6.92
2019-02-25T09:49:54.273Z,6.94
2019-02-25T09:52:24.759Z,6.83
2019-02-25T09:54:55.365Z,6.81
2019-02-25T09:57:25.833Z,6.85
2019-02-25T09:59:56.429Z,6.95
2019-02-25T10:02:27.116Z,6.96
2019-02-25T10:04:57.600Z,7.09
2019-02-25T10:07:28.014Z,7.09
2019-02-25T10:09:58.885Z,7.05
2019-02-25T10:12:29.357Z,7.00
2019-02-25T10:14:59.859Z,7.12
2019-02-25T10:17:30.330Z,7.16
2019-02-25T10:20:00.872Z,7.11
2019-02-25T10:22:32.848Z,7.24
2019-02-25T10:25:05.126Z,7.19
2019-02-25T10:27:35.630Z,7.33
2019-02-25T10:30:08.874Z,7.31
2019-02-25T10:32:39.313Z,7.23
2019-02-25T10:35:11.119Z,7.66
2019-02-25T10:37:43.826Z,7.87
2019-02-25T10:40:15.547Z,7.77
2019-02-25T10:42:46.736Z,7.85
2019-02-25T10:45:17.842Z,7.60
2019-02-25T10:47:49.464Z,7.60
2019-02-25T10:50:21.055Z,7.58
2019-02-25T10:52:51.703Z,7.85
2019-02-25T10:55:34.129Z,7.84
2019-02-25T10:58:06.185Z,7.91
2019-02-25T11:00:39.442Z,8.05
2019-02-25T11:03:10.722Z,8.24
2019-02-25T11:05:42.792Z,8.09
2019-02-25T11:08:15.091Z,8.15
2019-02-25T11:10:55.747Z,8.23
2019-02-25T11:13:27.625Z,8.31
2019-02-25T11:15:58.302Z,8.24
2019-02-25T11:18:28.929Z,8.31
2019-02-25T11:21:01.182Z,8.10
2019-02-25T11:23:31.484Z,8.30
2019-02-25T11:26:02.265Z,8.43
2019-02-25T11:28:35.639Z,8.46
2019-02-25T11:31:05.688Z,8.28
2019-02-25T11:33:36.078Z,8.45
2019-02-25T11:36:06.599Z,8.25
2019-02-25T11:38:37.464Z,8.42
2019-02-25T11:41:09.484Z,8.73
2019-02-25T11:43:40.082Z,8.59
2019-02-25T11:46:10.829Z,8.64
2019-02-25T11:48:41.318Z,8.47
2019-02-25T11:51:11.744Z,8.72
2019-02-25T11:53:42.240Z,8.74
2019-02-25T11:56:12.783Z,8.70
2019-02-25T11:58:43.273Z,8.84
2019-02-25T12:01:13.889Z,8.75
2019-02-25T12:03:44.460Z,8.69
2019-02-25T12:06:14.958Z,9.03
2019-02-25T12:08:45.549Z,8.84
2019-02-25T12:11:17.127Z,8.83
2019-02-25T12:13:49.594Z,8.96
2019-02-25T12:16:21.736Z,9.22
2019-02-25T12:18:52.208Z,9.40
2019-02-25T12:21:22.770Z,9.62
2019-02-25T12:23:53.306Z,9.88
2019-02-25T12:26:23.903Z,9.86
2019-02-25T12:28:54.463Z,9.96
2019-02-25T12:31:25.109Z,10.45
2019-02-25T12:33:55.465Z,10.82
2019-02-25T12:36:25.917Z,10.13
2019-02-25T12:38:56.441Z,9.92
2019-02-25T12:41:27.398Z,10.14
2019-02-25T12:43:57.804Z,10.26
2019-02-25T12:46:28.254Z,10.03
2019-02-25T12:48:59.590Z,10.17
2019-02-25T12:51:30.118Z,10.19
2019-02-25T12:54:00.519Z,10.28
2019-02-25T12:56:31.252Z,10.07
2019-02-25T12:59:01.727Z,10.14
2019-02-25T13:01:32.307Z,10.24
2019-02-25T13:04:02.662Z,10.06
2019-02-25T13:06:33.132Z,9.92
2019-02-25T13:09:05.066Z,9.67
2019-02-25T13:11:37.115Z,9.86
2019-02-25T13:14:07.454Z,10.05
2019-02-25T13:16:38.227Z,10.09
2019-02-25T13:19:08.633Z,10.32
2019-02-25T13:21:39.112Z,10.04
2019-02-25T13:24:09.970Z,10.02
2019-02-25T13:26:40.394Z,9.83
2019-02-25T13:29:10.804Z,9.51
2019-02-25T13:31:41.420Z,9.63
2019-02-25T13:34:11.846Z,9.62
2019-02-25T13:36:42.402Z,9.57
2019-02-25T13:39:13.073Z,9.53
2019-02-25T13:41:43.859Z,9.65
2019-02-25T13:44:14.232Z,9.54
2019-02-25T13:46:44.680Z,9.65
2019-02-25T13:49:15.355Z,9.53
2019-02-25T13:51:45.950Z,9.65
2019-02-25T13:54:16.459Z,9.67
2019-02-25T13:56:46.929Z,9.72
2019-02-25T13:59:17.420Z,9.86
2019-02-25T14:01:47.832Z,9.84
2019-02-25T14:04:18.263Z,10.20
2019-02-25T14:06:48.992Z,10.30
2019-02-25T14:09:19.408Z,10.36
2019-02-25T14:11:50.814Z,10.53
2019-02-25T14:14:21.440Z,10.69
2019-02-25T14:16:51.963Z,10.51
2019-02-25T14:19:22.385Z,9.99
2019-02-25T14:21:52.819Z,10.04
2019-02-25T14:24:23.785Z,10.18
2019-02-25T14:26:54.630Z,10.25
2019-02-25T14:29:26.475Z,10.07
2019-02-25T14:31:57.967Z,9.84
2019-02-25T14:34:28.666Z,9.82
2019-02-25T14:36:59.852Z,9.49
2019-02-25T14:39:32.952Z,9.60
2019-02-25T14:42:04.281Z,9.18
2019-02-25T14:44:37.903Z,9.20
2019-02-25T14:47:19.822Z,9.07
2019-02-25T14:49:42.782Z,9.14
2019-02-25T14:52:12.764Z,9.01
2019-02-25T14:54:43.287Z,8.96
2019-02-25T14:57:15.590Z,8.97
2019-02-25T14:59:46.178Z,8.96
2019-02-25T15:02:16.881Z,9.03
2019-02-25T15:04:47.523Z,8.95
2019-02-25T15:07:18.166Z,8.84
2019-02-25T15:09:49.348Z,8.89
2019-02-25T15:12:20.750Z,8.78
2019-02-25T15:14:51.464Z,8.78
2019-02-25T15:17:22.806Z,8.81
2019-02-25T15:19:53.263Z,8.80
2019-02-25T15:22:28.026Z,8.72
2019-02-25T15:24:57.108Z,8.75
2019-02-25T15:27:28.371Z,8.68
2019-02-25T15:29:58.868Z,8.72
2019-02-25T15:32:29.549Z,8.68
2019-02-25T15:35:01.483Z,8.67
2019-02-25T15:37:32.034Z,8.63
2019-02-25T15:40:03.921Z,8.59
2019-02-25T15:42:37.202Z,8.54
2019-02-25T15:45:08.671Z,8.48
2019-02-25T15:47:40.014Z,8.46
2019-02-25T15:50:14.690Z,8.45
2019-02-25T15:52:45.648Z,8.43
2019-02-25T15:55:19.517Z,8.35
2019-02-25T15:57:50.410Z,8.27
2019-02-25T16:00:23.471Z,8.23
2019-02-25T16:02:55.849Z,8.25
2019-02-25T16:05:29.570Z,8.17
2019-02-25T16:08:00.613Z,8.21
2019-02-25T16:10:32.086Z,8.24
2019-02-25T16:13:08.239Z,8.24
2019-02-25T16:15:35.312Z,8.20
2019-02-25T16:18:05.785Z,8.21
2019-02-25T16:20:36.422Z,8.14
2019-02-25T16:23:09.469Z,8.07
2019-02-25T16:25:39.822Z,8.04
2019-02-25T16:28:12.572Z,8.04
2019-02-25T16:30:44.540Z,8.00
2019-02-25T16:33:15.050Z,7.97
2019-02-25T16:35:46.198Z,7.89
2019-02-25T16:38:16.842Z,7.85
2019-02-25T16:40:47.648Z,7.86
2019-02-25T16:43:18.935Z,7.86
2019-02-25T16:45:49.521Z,7.79
2019-02-25T16:48:23.636Z,7.75
2019-02-25T16:50:52.963Z,7.71
2019-02-25T16:53:23.530Z,7.65
2019-02-25T16:55:54.286Z,7.59
2019-02-25T16:58:25.466Z,7.54
2019-02-25T17:00:58.549Z,7.49
2019-02-25T17:03:31.650Z,7.42
2019-02-25T17:06:04.113Z,7.42
2019-02-25T17:08:34.555Z,7.40
2019-02-25T17:11:05.974Z,7.34
2019-02-25T17:13:37.105Z,7.34
2019-02-25T17:16:17.895Z,7.31
2019-02-25T17:18:41.089Z,7.25
2019-02-25T17:21:11.862Z,7.18
2019-02-25T17:23:42.302Z,7.15
2019-02-25T17:26:14.955Z,7.15
2019-02-25T17:28:45.391Z,7.11
2019-02-25T17:31:16.336Z,7.09
2019-02-25T17:33:49.285Z,7.01
2019-02-25T17:36:20.309Z,7.00
2019-02-25T17:38:51.974Z,6.97
2019-02-25T17:41:23.544Z,6.93
2019-02-25T17:43:54.881Z,6.94
2019-02-25T17:46:28.850Z,6.92
2019-02-25T17:48:58.963Z,6.85
2019-02-25T17:51:29.498Z,6.78
2019-02-25T17:54:00.131Z,6.73
2019-02-25T17:56:30.587Z,6.68
2019-02-25T17:59:03.782Z,6.65
2019-02-25T18:01:34.526Z,6.64
2019-02-25T18:04:07.141Z,6.61
2019-02-25T18:06:41.456Z,6.62
2019-02-25T18:09:14.262Z,6.58
2019-02-25T18:11:45.395Z,6.54
2019-02-25T18:14:17.611Z,6.50
2019-02-25T18:16:50.823Z,6.48
2019-02-25T18:19:22.616Z,6.44
2019-02-25T18:21:53.178Z,6.40
2019-02-25T18:24:26.794Z,6.35
2019-02-25T18:26:55.899Z,6.26
2019-02-25T18:29:26.402Z,6.17
2019-02-25T18:31:57.139Z,6.06
2019-02-25T18:34:28.044Z,5.97
2019-02-25T18:36:59.691Z,5.88
2019-02-25T18:39:31.621Z,5.84
2019-02-25T18:42:02.236Z,5.68
2019-02-25T18:44:32.598Z,5.56
2019-02-25T18:47:03.000Z,5.47
2019-02-25T18:49:35.016Z,5.53
2019-02-25T18:52:05.995Z,5.53
2019-02-25T18:54:36.921Z,5.47
2019-02-25T18:57:08.015Z,5.56
2019-02-25T18:59:38.477Z,5.62
2019-02-25T19:02:10.291Z,5.61
2019-02-25T19:04:41.788Z,5.59
2019-02-25T19:07:13.412Z,5.52
2019-02-25T19:09:45.241Z,5.47
2019-02-25T19:12:16.898Z,5.46
2019-02-25T19:14:51.070Z,5.44
2019-02-25T19:17:21.046Z,5.43
2019-02-25T19:19:51.720Z,5.42
2019-02-25T19:22:24.579Z,5.44
2019-02-25T19:24:55.064Z,5.43
2019-02-25T19:27:27.777Z,5.40
2019-02-25T19:30:00.705Z,5.33
2019-02-25T19:32:31.389Z,5.40
2019-02-25T19:35:04.022Z,5.47
2019-02-25T19:37:37.687Z,5.50
2019-02-25T19:40:12.135Z,5.47
2019-02-25T19:42:39.819Z,5.40
2019-02-25T19:45:10.896Z,5.41
2019-02-25T19:47:43.282Z,5.45
2019-02-25T19:50:14.846Z,5.36
2019-02-25T19:52:46.687Z,5.39
2019-02-25T19:55:18.388Z,5.42
2019-02-25T19:57:50.265Z,5.42
2019-02-25T20:00:25.724Z,5.42
2019-02-25T20:03:05.125Z,5.45
2019-02-25T20:05:29.260Z,5.46
2019-02-25T20:07:59.741Z,5.46
2019-02-25T20:10:30.747Z,5.45
2019-02-25T20:13:01.087Z,5.35
2019-02-25T20:15:31.679Z,5.22
2019-02-25T20:18:02.157Z,5.20
2019-02-25T20:20:36.435Z,4.97
2019-02-25T20:23:08.568Z,5.09
2019-02-25T20:25:44.447Z,5.21
2019-02-25T20:28:15.845Z,5.18
2019-02-25T20:30:46.896Z,5.18
2019-02-25T20:33:18.300Z,5.14
2019-02-25T20:35:53.056Z,5.17
2019-02-25T20:38:22.800Z,5.22
2019-02-25T20:40:55.359Z,5.26
2019-02-25T20:43:28.262Z,5.30
2019-02-25T20:46:02.911Z,5.35
2019-02-25T20:48:32.679Z,5.41
2019-02-25T20:51:04.762Z,5.41
2019-02-25T20:53:37.681Z,5.42
2019-02-25T20:56:07.736Z,5.43
2019-02-25T20:58:40.039Z,5.47
2019-02-25T21:01:12.110Z,5.49
2019-02-25T21:03:45.825Z,5.50
2019-02-25T21:06:16.740Z,5.49
2019-02-25T21:08:47.160Z,5.49
2019-02-25T21:11:17.656Z,5.48
2019-02-25T21:13:48.177Z,5.41
2019-02-25T21:16:18.787Z,5.38
2019-02-25T21:18:50.926Z,5.33
2019-02-25T21:21:21.287Z,5.27
2019-02-25T21:23:51.820Z,5.27
2019-02-25T21:26:25.471Z,5.29
2019-02-25T21:28:57.896Z,5.28
2019-02-25T21:31:26.671Z,5.25
2019-02-25T21:33:58.786Z,5.26
2019-02-25T21:36:29.555Z,5.21
2019-02-25T21:39:01.880Z,5.16
2019-02-25T21:41:35.017Z,5.13
2019-02-25T21:44:06.125Z,5.05
2019-02-25T21:46:36.549Z,4.94
2019-02-25T21:49:08.412Z,4.79
2019-02-25T21:51:39.952Z,4.78
2019-02-25T21:54:11.353Z,4.84
2019-02-25T21:56:41.830Z,4.89
2019-02-25T21:59:14.975Z,4.75
2019-02-25T22:01:45.582Z,4.68
2019-02-25T22:04:18.056Z,4.65
2019-02-25T22:06:51.002Z,4.65
2019-02-25T22:09:35.460Z,4.72
2019-02-25T22:11:52.552Z,4.73
2019-02-25T22:14:25.513Z,4.73
2019-02-25T22:16:56.603Z,4.72
2019-02-25T22:19:27.644Z,4.76
2019-02-25T22:22:00.236Z,4.72
2019-02-25T22:24:32.079Z,4.68
2019-02-25T22:27:02.465Z,4.66
2019-02-25T22:29:34.872Z,4.71
2019-02-25T22:32:06.492Z,4.72
2019-02-25T22:34:37.935Z,4.72
2019-02-25T22:37:12.397Z,4.73
2019-02-25T22:39:40.993Z,4.70
2019-02-25T22:42:12.188Z,4.77
2019-02-25T22:44:45.154Z,4.76
2019-02-25T22:47:17.816Z,4.79
2019-02-25T22:49:47.855Z,4.78
2019-02-25T22:52:21.840Z,4.81
2019-02-25T22:54:52.139Z,4.85
2019-02-25T22:57:23.631Z,4.85
2019-02-25T22:59:55.288Z,4.82
2019-02-25T23:02:28.049Z,4.78
2019-02-25T23:04:59.780Z,4.85
2019-02-25T23:07:30.374Z,4.90
2019-02-25T23:10:01.174Z,4.92
2019-02-25T23:12:31.897Z,4.88
2019-02-25T23:15:03.849Z,4.86
2019-02-25T23:17:37.574Z,4.81
2019-02-25T23:20:09.523Z,4.83
2019-02-25T23:22:39.920Z,4.72
2019-02-25T23:25:11.567Z,4.66
2019-02-25T23:27:42.085Z,4.67
2019-02-25T23:30:13.778Z,4.63
2019-02-25T23:32:44.408Z,4.63
2019-02-25T23:35:16.471Z,4.66
2019-02-25T23:37:51.045Z,4.58
2019-02-25T23:40:19.748Z,4.43
2019-02-25T23:42:51.288Z,4.41
2019-02-25T23:45:23.171Z,4.52
2019-02-25T23:47:57.612Z,4.61
2019-02-25T23:50:27.947Z,4.63
2019-02-25T23:52:57.982Z,4.68
2019-02-25T23:55:29.662Z,4.70
2019-02-25T23:58:00.207Z,4.72
